createdAt,value
2018-05-03T00:00:13.461Z,78.78
2018-05-03T00:01:13.689Z,79.30
2018-05-03T00:02:13.915Z,78.54
2018-05-03T00:03:14.144Z,78.25
2018-05-03T00:04:14.373Z,78.35
2018-05-03T00:05:14.595Z,77.87
2018-05-03T00:06:14.827Z,77.78
2018-05-03T00:07:15.057Z,77.36
2018-05-03T00:08:15.280Z,77.30
2018-05-03T00:09:15.509Z,77.83
2018-05-03T00:10:15.735Z,77.74
2018-05-03T00:11:15.972Z,77.55
2018-05-03T00:12:16.200Z,77.74
2018-05-03T00:13:16.429Z,77.83
2018-05-03T00:14:16.656Z,77.55
2018-05-03T00:15:16.882Z,77.93
2018-05-03T00:16:17.111Z,78.41
2018-05-03T00:17:17.342Z,78.31
2018-05-03T00:18:17.609Z,78.22
2018-05-03T00:19:17.813Z,78.98
2018-05-03T00:20:18.053Z,78.78
2018-05-03T00:21:18.266Z,79.03
2018-05-03T00:22:18.511Z,79.22
2018-05-03T00:23:18.743Z,79.41
2018-05-03T00:24:18.969Z,79.55
2018-05-03T00:25:19.195Z,79.93
2018-05-03T00:26:19.421Z,79.89
2018-05-03T00:27:19.644Z,79.89
2018-05-03T00:28:19.865Z,80.55
2018-05-03T00:29:20.098Z,79.80
2018-05-03T00:30:20.319Z,80.36
2018-05-03T00:31:20.551Z,79.70
2018-05-03T00:32:20.773Z,79.70
2018-05-03T00:33:21.002Z,79.80
2018-05-03T00:34:21.230Z,79.80
2018-05-03T00:35:21.464Z,80.36
2018-05-03T00:36:21.694Z,80.08
2018-05-03T00:37:21.921Z,79.89
2018-05-03T00:38:22.154Z,80.75
2018-05-03T00:39:22.378Z,80.65
2018-05-03T00:40:22.611Z,81.03
2018-05-03T00:41:22.838Z,79.89
2018-05-03T00:42:23.064Z,80.75
2018-05-03T00:43:23.290Z,80.18
2018-05-03T00:44:23.515Z,80.08
2018-05-03T00:45:23.744Z,79.99
2018-05-03T00:46:23.972Z,80.08
2018-05-03T00:47:24.199Z,79.80
2018-05-03T00:48:24.422Z,79.89
2018-05-03T00:49:24.649Z,79.99
2018-05-03T00:50:24.877Z,79.89
2018-05-03T00:51:25.106Z,80.27
2018-05-03T00:52:25.332Z,81.03
2018-05-03T00:53:25.559Z,81.51
2018-05-03T00:54:25.787Z,81.51
2018-05-03T00:55:26.027Z,81.09
2018-05-03T00:56:26.246Z,81.13
2018-05-03T00:57:26.472Z,81.70
2018-05-03T00:58:26.707Z,82.61
2018-05-03T00:59:26.927Z,82.99
2018-05-03T01:00:27.154Z,83.85
2018-05-03T01:01:27.387Z,84.13
2018-05-03T01:02:27.613Z,84.42
2018-05-03T01:03:27.839Z,84.70
2018-05-03T01:04:28.067Z,84.61
2018-05-03T01:05:28.296Z,84.70
2018-05-03T01:06:28.523Z,83.65
2018-05-03T01:07:28.758Z,83.65
2018-05-03T01:08:28.982Z,82.70
2018-05-03T01:09:29.209Z,82.04
2018-05-03T01:10:29.435Z,81.95
2018-05-03T01:11:29.665Z,82.23
2018-05-03T01:12:29.891Z,82.04
2018-05-03T01:13:30.118Z,82.61
2018-05-03T01:14:30.343Z,82.42
2018-05-03T01:15:30.575Z,82.90
2018-05-03T01:16:30.805Z,82.51
2018-05-03T01:17:31.026Z,82.70
2018-05-03T01:18:31.255Z,82.04
2018-05-03T01:19:31.485Z,82.51
2018-05-03T01:20:31.713Z,83.28
2018-05-03T01:21:31.935Z,82.99
2018-05-03T01:22:32.163Z,83.94
2018-05-03T01:23:32.391Z,83.85
2018-05-03T01:24:32.616Z,83.94
2018-05-03T01:25:32.844Z,84.61
2018-05-03T01:26:33.071Z,84.13
2018-05-03T01:27:33.298Z,84.04
2018-05-03T01:28:33.527Z,84.33
2018-05-03T01:29:33.761Z,84.13
2018-05-03T01:30:33.978Z,83.75
2018-05-03T01:31:34.210Z,83.94
2018-05-03T01:32:34.433Z,82.90
2018-05-03T01:33:34.659Z,82.90
2018-05-03T01:34:34.886Z,82.93
2018-05-03T01:35:35.131Z,83.09
2018-05-03T01:36:35.339Z,82.90
2018-05-03T01:37:35.565Z,82.90
2018-05-03T01:38:35.799Z,82.93
2018-05-03T01:39:36.028Z,82.99
2018-05-03T01:40:36.258Z,83.03
2018-05-03T01:41:36.487Z,83.28
2018-05-03T01:42:36.712Z,83.56
2018-05-03T01:43:36.942Z,83.47
2018-05-03T01:44:37.164Z,84.04
2018-05-03T01:45:37.392Z,84.33
2018-05-03T01:46:37.622Z,84.04
2018-05-03T01:47:37.849Z,84.61
2018-05-03T01:48:38.078Z,84.23
2018-05-03T01:49:38.302Z,84.52
2018-05-03T01:50:38.525Z,84.42
2018-05-03T01:51:38.752Z,84.42
2018-05-03T01:52:38.982Z,84.23
2018-05-03T01:53:39.210Z,83.37
2018-05-03T01:54:39.439Z,83.47
2018-05-03T01:55:39.667Z,83.09
2018-05-03T01:56:39.897Z,83.09
2018-05-03T01:57:40.121Z,83.65
2018-05-03T01:58:40.349Z,83.09
2018-05-03T01:59:40.577Z,82.99
2018-05-03T02:00:40.811Z,83.09
2018-05-03T02:01:41.032Z,82.99
2018-05-03T02:02:41.258Z,82.90
2018-05-03T02:03:41.490Z,83.13
2018-05-03T02:04:41.717Z,83.28
2018-05-03T02:05:41.945Z,83.37
2018-05-03T02:06:42.173Z,83.70
2018-05-03T02:07:42.397Z,82.99
2018-05-03T02:08:42.626Z,83.09
2018-05-03T02:09:42.846Z,83.41
2018-05-03T02:10:43.079Z,83.03
2018-05-03T02:11:43.308Z,83.13
2018-05-03T02:12:43.533Z,83.32
2018-05-03T02:13:43.764Z,83.70
2018-05-03T02:14:43.991Z,84.61
2018-05-03T02:15:44.217Z,84.33
2018-05-03T02:16:44.446Z,84.13
2018-05-03T02:17:44.670Z,84.52
2018-05-03T02:18:44.894Z,85.18
2018-05-03T02:19:45.119Z,85.08
2018-05-03T02:20:45.353Z,84.42
2018-05-03T02:21:45.580Z,84.52
2018-05-03T02:22:45.808Z,84.61
2018-05-03T02:23:46.038Z,84.42
2018-05-03T02:24:46.261Z,84.04
2018-05-03T02:25:46.487Z,83.85
2018-05-03T02:26:46.716Z,84.13
2018-05-03T02:27:46.941Z,84.13
2018-05-03T02:28:47.169Z,83.51
2018-05-03T02:29:47.397Z,83.89
2018-05-03T02:30:47.627Z,83.65
2018-05-03T02:31:47.857Z,84.13
2018-05-03T02:32:48.083Z,84.80
2018-05-03T02:33:48.343Z,85.37
2018-05-03T02:34:48.536Z,85.08
2018-05-03T02:35:48.763Z,84.99
2018-05-03T02:36:48.981Z,85.37
2018-05-03T02:37:49.223Z,84.61
2018-05-03T02:38:49.455Z,84.42
2018-05-03T02:39:49.678Z,84.61
2018-05-03T02:40:49.907Z,84.80
2018-05-03T02:41:50.135Z,85.28
2018-05-03T02:42:50.361Z,85.94
2018-05-03T02:43:50.590Z,86.42
2018-05-03T02:44:50.815Z,85.28
2018-05-03T02:45:51.042Z,85.47
2018-05-03T02:46:51.272Z,85.37
2018-05-03T02:47:51.505Z,85.47
2018-05-03T02:48:51.728Z,84.70
2018-05-03T02:49:51.959Z,84.52
2018-05-03T02:50:52.181Z,84.70
2018-05-03T02:51:52.415Z,84.61
2018-05-03T02:52:52.645Z,84.42
2018-05-03T02:53:52.859Z,84.04
2018-05-03T02:54:53.085Z,84.13
2018-05-03T02:55:53.314Z,84.23
2018-05-03T02:56:53.539Z,84.08
2018-05-03T02:57:53.764Z,84.33
2018-05-03T02:58:53.991Z,83.70
2018-05-03T02:59:54.216Z,83.80
2018-05-03T03:00:54.442Z,83.75
2018-05-03T03:01:54.667Z,83.70
2018-05-03T03:02:54.895Z,83.89
2018-05-03T03:03:55.124Z,83.13
2018-05-03T03:04:55.353Z,83.32
2018-05-03T03:05:55.584Z,83.70
2018-05-03T03:06:55.817Z,84.17
2018-05-03T03:07:56.037Z,83.03
2018-05-03T03:08:56.265Z,83.03
2018-05-03T03:09:56.500Z,83.70
2018-05-03T03:10:56.720Z,83.70
2018-05-03T03:11:56.953Z,84.17
2018-05-03T03:12:57.186Z,83.22
2018-05-03T03:13:57.412Z,83.51
2018-05-03T03:14:57.634Z,83.03
2018-05-03T03:15:57.860Z,82.93
2018-05-03T03:16:58.116Z,83.22
2018-05-03T03:17:58.343Z,83.22
2018-05-03T03:18:58.570Z,83.70
2018-05-03T03:19:58.799Z,83.13
2018-05-03T03:20:59.027Z,83.41
2018-05-03T03:21:59.299Z,83.13
2018-05-03T03:22:59.476Z,83.41
2018-05-03T03:23:59.706Z,82.93
2018-05-03T03:24:59.935Z,83.13
2018-05-03T03:26:00.160Z,83.41
2018-05-03T03:27:00.387Z,82.93
2018-05-03T03:28:00.613Z,83.13
2018-05-03T03:29:00.844Z,82.84
2018-05-03T03:30:01.067Z,82.99
2018-05-03T03:31:01.297Z,83.13
2018-05-03T03:32:01.521Z,83.32
2018-05-03T03:33:01.742Z,83.37
2018-05-03T03:34:01.969Z,82.99
2018-05-03T03:35:02.194Z,83.28
2018-05-03T03:36:02.420Z,82.80
2018-05-03T03:37:02.649Z,82.99
2018-05-03T03:38:02.882Z,82.70
2018-05-03T03:39:03.102Z,82.70
2018-05-03T03:40:03.329Z,83.28
2018-05-03T03:41:03.563Z,84.23
2018-05-03T03:42:03.782Z,84.23
2018-05-03T03:43:04.012Z,83.28
2018-05-03T03:44:04.236Z,83.37
2018-05-03T03:45:04.464Z,83.18
2018-05-03T03:46:04.696Z,83.09
2018-05-03T03:47:04.925Z,83.47
2018-05-03T03:48:05.161Z,83.28
2018-05-03T03:49:05.381Z,83.09
2018-05-03T03:50:05.607Z,83.28
2018-05-03T03:51:05.834Z,82.80
2018-05-03T03:52:06.066Z,82.80
2018-05-03T03:53:06.324Z,83.09
2018-05-03T03:54:06.521Z,83.47
2018-05-03T03:55:06.746Z,82.99
2018-05-03T03:56:06.973Z,84.13
2018-05-03T03:57:07.203Z,83.65
2018-05-03T03:58:07.441Z,83.56
2018-05-03T03:59:07.669Z,83.75
2018-05-03T04:00:07.889Z,84.13
2018-05-03T04:01:08.120Z,82.90
2018-05-03T04:02:08.347Z,83.47
2018-05-03T04:03:08.573Z,83.65
2018-05-03T04:04:08.803Z,83.75
2018-05-03T04:05:09.032Z,84.04
2018-05-03T04:06:09.258Z,83.65
2018-05-03T04:07:09.486Z,84.04
2018-05-03T04:08:09.714Z,84.04
2018-05-03T04:09:09.941Z,83.94
2018-05-03T04:10:10.168Z,83.47
2018-05-03T04:11:10.395Z,84.13
2018-05-03T04:12:10.625Z,83.75
2018-05-03T04:13:10.849Z,83.65
2018-05-03T04:14:11.077Z,83.65
2018-05-03T04:15:11.304Z,83.94
2018-05-03T04:16:11.536Z,83.65
2018-05-03T04:17:11.763Z,83.09
2018-05-03T04:18:11.990Z,83.51
2018-05-03T04:19:12.220Z,83.03
2018-05-03T04:20:12.447Z,83.22
2018-05-03T04:21:12.674Z,83.03
2018-05-03T04:22:12.921Z,82.93
2018-05-03T04:23:13.128Z,83.51
2018-05-03T04:24:13.350Z,83.47
2018-05-03T04:25:13.577Z,84.04
2018-05-03T04:26:13.807Z,84.13
2018-05-03T04:27:14.037Z,84.36
2018-05-03T04:28:14.269Z,84.04
2018-05-03T04:29:14.501Z,83.65
2018-05-03T04:30:14.729Z,84.56
2018-05-03T04:31:14.957Z,84.08
2018-05-03T04:32:15.185Z,84.27
2018-05-03T04:33:15.412Z,84.17
2018-05-03T04:34:15.640Z,84.17
2018-05-03T04:35:15.882Z,83.89
2018-05-03T04:36:16.092Z,83.70
2018-05-03T04:37:16.318Z,83.89
2018-05-03T04:38:16.543Z,84.17
2018-05-03T04:39:16.769Z,84.56
2018-05-03T04:40:16.997Z,83.89
2018-05-03T04:41:17.230Z,83.80
2018-05-03T04:42:17.457Z,83.70
2018-05-03T04:43:17.683Z,83.51
2018-05-03T04:44:17.913Z,84.08
2018-05-03T04:45:18.139Z,83.80
2018-05-03T04:46:18.365Z,83.22
2018-05-03T04:47:18.593Z,83.03
2018-05-03T04:48:18.819Z,82.84
2018-05-03T04:49:19.047Z,83.03
2018-05-03T04:50:19.279Z,83.13
2018-05-03T04:51:19.500Z,83.03
2018-05-03T04:52:19.727Z,82.56
2018-05-03T04:53:19.955Z,82.65
2018-05-03T04:54:20.181Z,82.89
2018-05-03T04:55:20.411Z,82.75
2018-05-03T04:56:20.640Z,82.89
2018-05-03T04:57:20.879Z,83.13
2018-05-03T04:58:21.091Z,83.17
2018-05-03T04:59:21.321Z,83.17
2018-05-03T05:00:21.551Z,83.17
2018-05-03T05:01:21.783Z,82.89
2018-05-03T05:02:22.010Z,82.31
2018-05-03T05:03:22.238Z,81.93
2018-05-03T05:04:22.468Z,81.46
2018-05-03T05:05:22.695Z,80.79
2018-05-03T05:06:22.924Z,80.50
2018-05-03T05:07:23.152Z,80.79
2018-05-03T05:08:23.381Z,80.88
2018-05-03T05:09:23.609Z,80.60
2018-05-03T05:10:23.845Z,81.02
2018-05-03T05:11:24.069Z,81.07
2018-05-03T05:12:24.316Z,80.79
2018-05-03T05:13:24.540Z,80.54
2018-05-03T05:14:24.770Z,81.84
2018-05-03T05:15:25.000Z,82.98
2018-05-03T05:16:25.229Z,82.60
2018-05-03T05:17:25.457Z,82.89
2018-05-03T05:18:25.690Z,82.79
2018-05-03T05:19:25.916Z,82.79
2018-05-03T05:20:26.147Z,83.07
2018-05-03T05:21:26.376Z,82.41
2018-05-03T05:22:26.601Z,82.12
2018-05-03T05:23:26.833Z,81.93
2018-05-03T05:24:27.056Z,81.07
2018-05-03T05:25:27.286Z,81.40
2018-05-03T05:26:27.517Z,80.54
2018-05-03T05:27:27.744Z,80.83
2018-05-03T05:28:27.973Z,80.07
2018-05-03T05:29:28.203Z,80.16
2018-05-03T05:30:28.434Z,79.68
2018-05-03T05:31:28.660Z,79.40
2018-05-03T05:32:28.892Z,79.68
2018-05-03T05:33:29.120Z,79.49
2018-05-03T05:34:29.347Z,79.49
2018-05-03T05:35:29.577Z,79.40
2018-05-03T05:36:29.806Z,79.40
2018-05-03T05:37:30.034Z,79.40
2018-05-03T05:38:30.332Z,79.11
2018-05-03T05:39:30.487Z,79.35
2018-05-03T05:40:30.724Z,79.06
2018-05-03T05:41:30.950Z,78.39
2018-05-03T05:42:31.178Z,78.77
2018-05-03T05:43:31.411Z,78.73
2018-05-03T05:44:31.627Z,79.21
2018-05-03T05:45:31.874Z,79.49
2018-05-03T05:46:32.102Z,79.02
2018-05-03T05:47:32.332Z,78.67
2018-05-03T05:48:32.563Z,78.30
2018-05-03T05:49:32.783Z,78.39
2018-05-03T05:50:33.016Z,78.20
2018-05-03T05:51:33.247Z,77.44
2018-05-03T05:52:33.476Z,77.62
2018-05-03T05:53:33.709Z,77.91
2018-05-03T05:54:33.932Z,77.15
2018-05-03T05:55:34.162Z,77.53
2018-05-03T05:56:34.452Z,77.53
2018-05-03T05:57:34.647Z,76.86
2018-05-03T05:58:34.867Z,76.86
2018-05-03T05:59:35.095Z,77.06
2018-05-03T06:00:35.325Z,76.57
2018-05-03T06:01:35.554Z,76.01
2018-05-03T06:02:35.783Z,76.01
2018-05-03T06:03:36.015Z,76.10
2018-05-03T06:04:36.254Z,76.10
2018-05-03T06:05:36.469Z,75.24
2018-05-03T06:06:36.699Z,75.72
2018-05-03T06:07:36.930Z,75.72
2018-05-03T06:08:37.147Z,75.24
2018-05-03T06:09:37.387Z,74.86
2018-05-03T06:10:37.621Z,75.09
2018-05-03T06:11:37.845Z,74.99
2018-05-03T06:12:38.071Z,75.18
2018-05-03T06:13:38.295Z,74.71
2018-05-03T06:14:38.523Z,74.13
2018-05-03T06:15:38.754Z,73.94
2018-05-03T06:16:38.981Z,74.08
2018-05-03T06:17:39.209Z,73.79
2018-05-03T06:18:39.437Z,73.60
2018-05-03T06:19:39.668Z,72.64
2018-05-03T06:20:39.893Z,72.83
2018-05-03T06:21:40.122Z,72.07
2018-05-03T06:22:40.360Z,71.72
2018-05-03T06:23:40.576Z,71.53
2018-05-03T06:24:40.790Z,70.96
2018-05-03T06:25:41.037Z,70.14
2018-05-03T06:26:41.272Z,70.14
2018-05-03T06:27:41.507Z,68.90
2018-05-03T06:28:41.727Z,68.70
2018-05-03T06:29:41.950Z,67.84
2018-05-03T06:30:42.175Z,67.97
2018-05-03T06:31:42.405Z,66.92
2018-05-03T06:32:42.642Z,67.69
2018-05-03T06:33:42.864Z,67.75
2018-05-03T06:34:43.094Z,68.04
2018-05-03T06:35:43.322Z,68.07
2018-05-03T06:36:43.552Z,67.30
2018-05-03T06:37:43.780Z,67.40
2018-05-03T06:38:44.011Z,67.02
2018-05-03T06:39:44.237Z,67.78
2018-05-03T06:40:44.476Z,67.21
2018-05-03T06:41:44.692Z,66.76
2018-05-03T06:42:44.925Z,66.76
2018-05-03T06:43:45.157Z,65.74
2018-05-03T06:44:45.380Z,65.39
2018-05-03T06:45:45.608Z,64.82
2018-05-03T06:46:45.839Z,63.70
2018-05-03T06:47:46.066Z,64.09
2018-05-03T06:48:46.311Z,62.93
2018-05-03T06:49:46.544Z,62.55
2018-05-03T06:50:46.779Z,61.88
2018-05-03T06:51:47.004Z,61.88
2018-05-03T06:52:47.244Z,61.69
2018-05-03T06:53:47.474Z,61.88
2018-05-03T06:54:47.698Z,62.33
2018-05-03T06:55:47.930Z,61.69
2018-05-03T06:56:48.167Z,60.93
2018-05-03T06:57:48.388Z,60.44
2018-05-03T06:58:48.619Z,60.64
2018-05-03T06:59:48.853Z,60.06
2018-05-03T07:00:49.083Z,60.06
2018-05-03T07:01:49.319Z,60.54
2018-05-03T07:02:49.547Z,60.64
2018-05-03T07:03:49.777Z,61.02
2018-05-03T07:04:50.011Z,60.93
2018-05-03T07:05:50.241Z,61.60
2018-05-03T07:06:50.481Z,61.31
2018-05-03T07:07:50.699Z,61.02
2018-05-03T07:08:50.930Z,60.44
2018-05-03T07:09:51.233Z,60.35
2018-05-03T07:10:51.386Z,61.50
2018-05-03T07:11:51.615Z,61.79
2018-05-03T07:12:51.848Z,60.64
2018-05-03T07:13:52.075Z,60.83
2018-05-03T07:14:52.308Z,60.25
2018-05-03T07:15:52.540Z,61.15
2018-05-03T07:16:52.808Z,60.54
2018-05-03T07:17:53.016Z,60.73
2018-05-03T07:18:53.240Z,60.64
2018-05-03T07:19:53.569Z,60.35
2018-05-03T07:20:53.705Z,60.28
2018-05-03T07:21:53.933Z,59.71
2018-05-03T07:22:54.166Z,59.93
2018-05-03T07:23:54.471Z,60.22
2018-05-03T07:24:54.631Z,59.83
2018-05-03T07:25:54.862Z,58.39
2018-05-03T07:26:55.100Z,58.49
2018-05-03T07:27:55.328Z,58.30
2018-05-03T07:28:55.555Z,57.63
2018-05-03T07:29:55.791Z,57.24
2018-05-03T07:30:56.036Z,57.08
2018-05-03T07:31:56.258Z,57.37
2018-05-03T07:32:56.488Z,57.06
2018-05-03T07:33:56.718Z,56.48
2018-05-03T07:34:56.952Z,58.46
2018-05-03T07:35:57.188Z,59.90
2018-05-03T07:36:57.432Z,59.97
2018-05-03T07:37:57.647Z,59.11
2018-05-03T07:38:57.877Z,59.58
2018-05-03T07:39:58.110Z,60.80
2018-05-03T07:40:58.389Z,62.36
2018-05-03T07:41:58.570Z,61.60
2018-05-03T07:42:58.803Z,61.88
2018-05-03T07:43:59.041Z,61.21
2018-05-03T07:44:59.268Z,61.60
2018-05-03T07:45:59.498Z,60.61
2018-05-03T07:46:59.732Z,61.47
2018-05-03T07:47:59.961Z,60.70
2018-05-03T07:49:00.196Z,61.47
2018-05-03T07:50:00.427Z,61.18
2018-05-03T07:51:00.663Z,61.47
2018-05-03T07:52:00.892Z,60.51
2018-05-03T07:53:01.120Z,60.13
2018-05-03T07:54:01.352Z,59.94
2018-05-03T07:55:01.583Z,59.84
2018-05-03T07:56:01.810Z,60.29
2018-05-03T07:57:02.043Z,61.44
2018-05-03T07:58:02.270Z,61.34
2018-05-03T07:59:02.500Z,62.11
2018-05-03T08:00:02.903Z,61.88
2018-05-03T08:01:02.969Z,62.20
2018-05-03T08:02:03.258Z,61.54
2018-05-03T08:03:03.435Z,61.51
2018-05-03T08:04:03.656Z,62.37
2018-05-03T08:05:03.888Z,62.46
2018-05-03T08:06:04.116Z,62.84
2018-05-03T08:07:04.348Z,63.99
2018-05-03T08:08:04.578Z,62.87
2018-05-03T08:09:04.809Z,62.59
2018-05-03T08:10:05.076Z,62.87
2018-05-03T08:11:05.267Z,62.59
2018-05-03T08:12:05.500Z,62.30
2018-05-03T08:13:05.735Z,62.30
2018-05-03T08:14:05.960Z,62.52
2018-05-03T08:15:06.199Z,61.82
2018-05-03T08:16:06.430Z,62.87
2018-05-03T08:17:06.753Z,61.54
2018-05-03T08:18:06.905Z,61.54
2018-05-03T08:19:07.129Z,61.72
2018-05-03T08:20:07.360Z,62.40
2018-05-03T08:21:07.591Z,62.11
2018-05-03T08:22:07.823Z,62.77
2018-05-03T08:23:08.057Z,62.49
2018-05-03T08:24:08.318Z,61.47
2018-05-03T08:25:08.550Z,61.85
2018-05-03T08:26:08.783Z,61.76
2018-05-03T08:27:09.009Z,61.54
2018-05-03T08:28:09.236Z,61.66
2018-05-03T08:29:09.464Z,62.17
2018-05-03T08:30:09.697Z,61.37
2018-05-03T08:31:09.922Z,61.60
2018-05-03T08:32:10.150Z,60.54
2018-05-03T08:33:10.383Z,61.21
2018-05-03T08:34:10.613Z,60.54
2018-05-03T08:35:10.845Z,60.73
2018-05-03T08:36:11.079Z,60.89
2018-05-03T08:37:11.306Z,60.32
2018-05-03T08:38:11.547Z,60.32
2018-05-03T08:39:11.772Z,61.57
2018-05-03T08:40:12.003Z,61.37
2018-05-03T08:41:12.231Z,61.18
2018-05-03T08:42:12.468Z,61.08
2018-05-03T08:43:12.711Z,61.31
2018-05-03T08:44:12.928Z,60.83
2018-05-03T08:45:13.164Z,61.21
2018-05-03T08:46:13.401Z,60.09
2018-05-03T08:47:13.626Z,59.52
2018-05-03T08:48:13.859Z,59.71
2018-05-03T08:49:14.093Z,58.17
2018-05-03T08:50:14.330Z,57.60
2018-05-03T08:51:14.553Z,57.89
2018-05-03T08:52:14.785Z,58.56
2018-05-03T08:53:15.021Z,58.01
2018-05-03T08:54:15.242Z,58.59
2018-05-03T08:55:15.474Z,57.65
2018-05-03T08:56:15.703Z,58.62
2018-05-03T08:57:15.940Z,57.08
2018-05-03T08:58:16.173Z,57.15
2018-05-03T08:59:16.409Z,57.34
2018-05-03T09:00:16.629Z,58.59
2018-05-03T09:01:16.935Z,57.31
2018-05-03T09:02:17.102Z,58.17
2018-05-03T09:03:17.319Z,57.70
2018-05-03T09:04:17.551Z,57.79
2018-05-03T09:05:17.774Z,58.08
2018-05-03T09:06:18.006Z,57.89
2018-05-03T09:07:18.238Z,57.50
2018-05-03T09:08:18.467Z,58.59
2018-05-03T09:09:18.694Z,57.06
2018-05-03T09:10:18.927Z,57.24
2018-05-03T09:11:19.153Z,57.06
2018-05-03T09:12:19.384Z,56.54
2018-05-03T09:13:19.613Z,57.06
2018-05-03T09:14:19.845Z,57.34
2018-05-03T09:15:20.081Z,57.53
2018-05-03T09:16:20.309Z,56.89
2018-05-03T09:17:20.541Z,55.16
2018-05-03T09:18:20.769Z,56.70
2018-05-03T09:19:21.001Z,55.55
2018-05-03T09:20:21.237Z,56.12
2018-05-03T09:21:21.464Z,57.18
2018-05-03T09:22:21.759Z,55.74
2018-05-03T09:23:21.928Z,54.58
2018-05-03T09:24:22.159Z,55.74
2018-05-03T09:25:22.391Z,55.16
2018-05-03T09:26:22.622Z,55.16
2018-05-03T09:27:22.855Z,56.41
2018-05-03T09:28:23.086Z,56.60
2018-05-03T09:29:23.314Z,55.07
2018-05-03T09:30:23.542Z,55.64
2018-05-03T09:31:23.774Z,54.52
2018-05-03T09:32:24.006Z,54.52
2018-05-03T09:33:24.237Z,54.42
2018-05-03T09:34:24.472Z,54.45
2018-05-03T09:35:24.721Z,54.35
2018-05-03T09:36:24.952Z,53.20
2018-05-03T09:37:25.186Z,54.04
2018-05-03T09:38:25.413Z,54.35
2018-05-03T09:39:25.650Z,53.58
2018-05-03T09:40:25.873Z,53.46
2018-05-03T09:41:26.122Z,54.13
2018-05-03T09:42:26.342Z,54.45
2018-05-03T09:43:26.569Z,53.58
2018-05-03T09:44:26.857Z,52.81
2018-05-03T09:45:27.027Z,52.08
2018-05-03T09:46:27.272Z,52.36
2018-05-03T09:47:27.504Z,53.16
2018-05-03T09:48:27.730Z,52.39
2018-05-03T09:49:27.980Z,52.39
2018-05-03T09:50:28.185Z,51.14
2018-05-03T09:51:28.420Z,52.12
2018-05-03T09:52:28.739Z,52.58
2018-05-03T09:53:28.884Z,51.81
2018-05-03T09:54:29.108Z,52.48
2018-05-03T09:55:29.338Z,51.98
2018-05-03T09:56:29.568Z,52.17
2018-05-03T09:57:29.820Z,52.34
2018-05-03T09:58:30.032Z,53.11
2018-05-03T09:59:30.300Z,53.68
2018-05-03T10:00:30.534Z,53.39
2018-05-03T10:01:30.752Z,54.83
2018-05-03T10:02:30.992Z,54.13
2018-05-03T10:03:31.233Z,53.36
2018-05-03T10:04:31.470Z,53.27
2018-05-03T10:05:31.689Z,54.25
2018-05-03T10:06:31.913Z,54.25
2018-05-03T10:07:32.145Z,53.32
2018-05-03T10:08:32.372Z,51.02
2018-05-03T10:09:32.597Z,50.44
2018-05-03T10:10:32.829Z,50.54
2018-05-03T10:11:33.063Z,50.37
2018-05-03T10:12:33.288Z,51.21
2018-05-03T10:13:33.523Z,51.98
2018-05-03T10:14:33.776Z,52.72
2018-05-03T10:15:33.977Z,51.88
2018-05-03T10:16:34.205Z,51.76
2018-05-03T10:17:34.437Z,51.09
2018-05-03T10:18:34.672Z,51.93
2018-05-03T10:19:34.906Z,50.99
2018-05-03T10:20:35.144Z,52.40
2018-05-03T10:21:35.373Z,52.98
2018-05-03T10:22:35.612Z,52.69
2018-05-03T10:23:35.838Z,52.98
2018-05-03T10:24:36.073Z,54.33
2018-05-03T10:25:36.300Z,53.27
2018-05-03T10:26:36.542Z,53.30
2018-05-03T10:27:36.772Z,54.16
2018-05-03T10:28:37.008Z,54.23
2018-05-03T10:29:37.244Z,54.78
2018-05-03T10:30:37.479Z,55.35
2018-05-03T10:31:37.710Z,56.12
2018-05-03T10:32:37.947Z,56.70
2018-05-03T10:33:38.182Z,56.67
2018-05-03T10:34:38.413Z,57.53
2018-05-03T10:35:38.699Z,57.15
2018-05-03T10:36:38.889Z,57.50
2018-05-03T10:37:39.121Z,57.60
2018-05-03T10:38:39.355Z,58.46
2018-05-03T10:39:39.578Z,57.79
2018-05-03T10:40:39.808Z,58.46
2018-05-03T10:41:40.038Z,58.17
2018-05-03T10:42:40.273Z,58.46
2018-05-03T10:43:40.513Z,58.72
2018-05-03T10:44:40.734Z,59.11
2018-05-03T10:45:40.968Z,59.01
2018-05-03T10:46:41.201Z,60.06
2018-05-03T10:47:41.434Z,60.16
2018-05-03T10:48:41.699Z,60.54
2018-05-03T10:49:41.903Z,60.54
2018-05-03T10:50:42.135Z,60.96
2018-05-03T10:51:42.366Z,59.71
2018-05-03T10:52:42.597Z,59.11
2018-05-03T10:53:42.829Z,59.97
2018-05-03T10:54:43.055Z,58.44
2018-05-03T10:55:43.291Z,58.24
2018-05-03T10:56:43.522Z,58.05
2018-05-03T10:57:43.752Z,58.34
2018-05-03T10:58:43.993Z,58.91
2018-05-03T10:59:44.211Z,58.44
2018-05-03T11:00:44.451Z,58.44
2018-05-03T11:01:44.681Z,57.19
2018-05-03T11:02:44.911Z,57.41
2018-05-03T11:03:45.147Z,56.61
2018-05-03T11:04:45.385Z,56.54
2018-05-03T11:05:45.607Z,56.74
2018-05-03T11:06:45.841Z,56.26
2018-05-03T11:07:46.069Z,56.83
2018-05-03T11:08:46.303Z,56.86
2018-05-03T11:09:46.527Z,56.00
2018-05-03T11:10:46.772Z,55.52
2018-05-03T11:11:46.996Z,56.76
2018-05-03T11:12:47.227Z,56.67
2018-05-03T11:13:47.485Z,55.55
2018-05-03T11:14:47.683Z,54.78
2018-05-03T11:15:47.901Z,54.58
2018-05-03T11:16:48.194Z,55.93
2018-05-03T11:17:48.366Z,56.70
2018-05-03T11:18:48.595Z,54.97
2018-05-03T11:19:48.828Z,54.17
2018-05-03T11:20:49.055Z,53.70
2018-05-03T11:21:49.289Z,53.99
2018-05-03T11:22:49.518Z,53.72
2018-05-03T11:23:49.751Z,54.08
2018-05-03T11:24:49.981Z,54.78
2018-05-03T11:25:50.267Z,54.21
2018-05-03T11:26:50.435Z,54.39
2018-05-03T11:27:50.663Z,53.27
2018-05-03T11:28:50.895Z,54.33
2018-05-03T11:29:51.124Z,55.29
2018-05-03T11:30:51.360Z,54.74
2018-05-03T11:31:51.591Z,54.25
2018-05-03T11:32:51.822Z,54.35
2018-05-03T11:33:52.058Z,54.64
2018-05-03T11:34:52.285Z,55.79
2018-05-03T11:35:52.517Z,54.74
2018-05-03T11:36:52.755Z,54.16
2018-05-03T11:37:52.977Z,53.87
2018-05-03T11:38:53.211Z,54.16
2018-05-03T11:39:53.443Z,54.47
2018-05-03T11:40:53.676Z,53.90
2018-05-03T11:41:53.909Z,53.61
2018-05-03T11:42:54.142Z,53.13
2018-05-03T11:43:54.376Z,52.46
2018-05-03T11:44:54.601Z,53.70
2018-05-03T11:45:54.844Z,52.55
2018-05-03T11:46:55.077Z,51.98
2018-05-03T11:47:55.307Z,51.88
2018-05-03T11:48:55.540Z,52.08
2018-05-03T11:49:55.773Z,50.73
2018-05-03T11:50:56.002Z,52.08
2018-05-03T11:51:56.234Z,52.14
2018-05-03T11:52:56.465Z,51.98
2018-05-03T11:53:56.703Z,51.88
2018-05-03T11:54:56.941Z,51.98
2018-05-03T11:55:57.157Z,52.08
2018-05-03T11:56:57.381Z,50.44
2018-05-03T11:57:57.624Z,50.34
2018-05-03T11:58:57.847Z,49.67
2018-05-03T11:59:58.082Z,50.15
2018-05-03T12:00:58.316Z,50.61
2018-05-03T12:01:58.546Z,49.87
2018-05-03T12:02:58.779Z,51.50
2018-05-03T12:03:59.022Z,50.34
2018-05-03T12:04:59.245Z,50.37
2018-05-03T12:05:59.552Z,51.04
2018-05-03T12:06:59.695Z,49.12
2018-05-03T12:07:59.928Z,49.02
2018-05-03T12:09:00.169Z,49.53
2018-05-03T12:10:00.390Z,49.02
2018-05-03T12:11:00.620Z,48.93
2018-05-03T12:12:00.863Z,49.87
2018-05-03T12:13:01.098Z,50.54
2018-05-03T12:14:01.331Z,51.88
2018-05-03T12:15:01.557Z,50.92
2018-05-03T12:16:01.797Z,50.15
2018-05-03T12:17:02.021Z,49.38
2018-05-03T12:18:02.253Z,49.31
2018-05-03T12:19:02.489Z,49.69
2018-05-03T12:20:02.713Z,50.66
2018-05-03T12:21:02.950Z,49.69
2018-05-03T12:22:03.189Z,47.99
2018-05-03T12:23:03.414Z,48.69
2018-05-03T12:24:03.655Z,50.23
2018-05-03T12:25:03.885Z,46.86
2018-05-03T12:26:04.109Z,47.13
2018-05-03T12:27:04.344Z,47.31
2018-05-03T12:28:04.575Z,48.83
2018-05-03T12:29:04.810Z,50.25
2018-05-03T12:30:05.046Z,49.87
2018-05-03T12:31:05.276Z,50.42
2018-05-03T12:32:05.502Z,51.28
2018-05-03T12:33:05.733Z,52.24
2018-05-03T12:34:05.973Z,51.37
2018-05-03T12:35:06.210Z,51.47
2018-05-03T12:36:06.442Z,50.96
2018-05-03T12:37:06.677Z,51.06
2018-05-03T12:38:06.910Z,50.96
2018-05-03T12:39:07.138Z,51.64
2018-05-03T12:40:07.384Z,52.62
2018-05-03T12:41:07.598Z,52.24
2018-05-03T12:42:07.839Z,51.37
2018-05-03T12:43:08.067Z,51.95
2018-05-03T12:44:08.298Z,50.44
2018-05-03T12:45:08.544Z,50.44
2018-05-03T12:46:08.759Z,49.87
2018-05-03T12:47:08.994Z,49.57
2018-05-03T12:48:09.234Z,48.61
2018-05-03T12:49:09.465Z,48.71
2018-05-03T12:50:09.701Z,51.79
2018-05-03T12:51:09.992Z,50.18
2018-05-03T12:52:10.154Z,48.25
2018-05-03T12:53:10.386Z,49.02
2018-05-03T12:54:10.621Z,49.02
2018-05-03T12:55:10.855Z,48.81